sensor_id;sensor_type;location;lat;lon;timestamp;pressure;altitude;pressure_sealevel;temperature;humidity
79285;BME280;68734;50.452;11.636;2024-01-10T00:01:45;96721.31;;;-12.81;92.36
79285;BME280;68734;50.452;11.636;2024-01-10T00:04:11;96729.13;;;-12.81;92.16
79285;BME280;68734;50.452;11.636;2024-01-10T00:06:38;96726.03;;;-12.88;92.21
79285;BME280;68734;50.452;11.636;2024-01-10T00:09:04;96728.06;;;-12.93;91.99
79285;BME280;68734;50.452;11.636;2024-01-10T00:11:29;96722.72;;;-13.06;92.88
79285;BME280;68734;50.452;11.636;2024-01-10T00:13:55;96710.91;;;-13.11;93.96
79285;BME280;68734;50.452;11.636;2024-01-10T00:16:25;96714.16;;;-13.08;94.24
79285;BME280;68734;50.452;11.636;2024-01-10T00:18:51;96702.94;;;-13.08;94.08
79285;BME280;68734;50.452;11.636;2024-01-10T00:21:16;96715.09;;;-13.09;94.06
79285;BME280;68734;50.452;11.636;2024-01-10T00:23:42;96692.03;;;-13.15;94.00
79285;BME280;68734;50.452;11.636;2024-01-10T00:26:07;96699.31;;;-13.06;93.71
79285;BME280;68734;50.452;11.636;2024-01-10T00:28:33;96698.56;;;-13.08;93.43
79285;BME280;68734;50.452;11.636;2024-01-10T00:30:58;96690.34;;;-13.16;93.66
79285;BME280;68734;50.452;11.636;2024-01-10T00:33:23;96689.78;;;-13.21;94.06
79285;BME280;68734;50.452;11.636;2024-01-10T00:35:49;96689.78;;;-13.21;94.22
79285;BME280;68734;50.452;11.636;2024-01-10T00:38:19;96699.66;;;-13.12;94.05
79285;BME280;68734;50.452;11.636;2024-01-10T00:40:44;96691.19;;;-13.15;93.91
79285;BME280;68734;50.452;11.636;2024-01-10T00:43:10;96696.22;;;-13.12;94.16
79285;BME280;68734;50.452;11.636;2024-01-10T00:45:35;96690.34;;;-13.16;93.85
79285;BME280;68734;50.452;11.636;2024-01-10T00:48:01;96696.72;;;-13.06;92.96
79285;BME280;68734;50.452;11.636;2024-01-10T00:50:26;96698.22;;;-13.01;92.14
79285;BME280;68734;50.452;11.636;2024-01-10T00:52:52;96688.06;;;-13.06;91.52
79285;BME280;68734;50.452;11.636;2024-01-10T00:55:19;96691.59;;;-13.07;91.52
79285;BME280;68734;50.452;11.636;2024-01-10T00:57:45;96686.56;;;-13.10;91.88
79285;BME280;68734;50.452;11.636;2024-01-10T01:00:11;96682.63;;;-13.17;92.50
79285;BME280;68734;50.452;11.636;2024-01-10T01:02:37;96688.38;;;-13.27;92.42
79285;BME280;68734;50.452;11.636;2024-01-10T01:05:05;96689.22;;;-13.26;93.25
79285;BME280;68734;50.452;11.636;2024-01-10T01:07:30;96692.97;;;-13.16;93.39
79285;BME280;68734;50.452;11.636;2024-01-10T01:09:56;96697.06;;;-13.12;93.13
79285;BME280;68734;50.452;11.636;2024-01-10T01:12:21;96702.25;;;-13.12;93.05
79285;BME280;68734;50.452;11.636;2024-01-10T01:14:47;96704.59;;;-13.07;93.04
79285;BME280;68734;50.452;11.636;2024-01-10T01:17:12;96700.25;;;-13.07;93.10
79285;BME280;68734;50.452;11.636;2024-01-10T01:19:38;96698.56;;;-13.08;92.90
79285;BME280;68734;50.452;11.636;2024-01-10T01:22:03;96692.69;;;-13.11;92.00
79285;BME280;68734;50.452;11.636;2024-01-10T01:24:29;96693.38;;;-13.23;92.60
79285;BME280;68734;50.452;11.636;2024-01-10T01:26:54;96693.09;;;-13.33;93.10
79285;BME280;68734;50.452;11.636;2024-01-10T01:29:20;96696.97;;;-13.40;93.29
79285;BME280;68734;50.452;11.636;2024-01-10T01:31:46;96685.06;;;-13.44;93.42
79285;BME280;68734;50.452;11.636;2024-01-10T01:34:14;96686.31;;;-13.52;93.43
79285;BME280;68734;50.452;11.636;2024-01-10T01:36:39;96675.53;;;-13.60;94.01
79285;BME280;68734;50.452;11.636;2024-01-10T01:39:05;96683.25;;;-13.58;94.36
79285;BME280;68734;50.452;11.636;2024-01-10T01:41:31;96686.81;;;-13.61;94.56
79285;BME280;68734;50.452;11.636;2024-01-10T01:43:56;96686.06;;;-13.63;94.46
79285;BME280;68734;50.452;11.636;2024-01-10T01:46:22;96687.56;;;-13.59;94.67
79285;BME280;68734;50.452;11.636;2024-01-10T01:48:49;96684.56;;;-13.67;95.28
79285;BME280;68734;50.452;11.636;2024-01-10T01:51:15;96687.75;;;-13.62;95.71
79285;BME280;68734;50.452;11.636;2024-01-10T01:53:46;96670.47;;;-13.63;95.77
79285;BME280;68734;50.452;11.636;2024-01-10T01:56:15;96679.88;;;-13.60;95.47
79285;BME280;68734;50.452;11.636;2024-01-10T01:58:42;96685.72;;;-13.57;95.73
79285;BME280;68734;50.452;11.636;2024-01-10T02:01:10;96672.84;;;-13.58;95.98
79285;BME280;68734;50.452;11.636;2024-01-10T02:03:36;96671.97;;;-13.59;96.08
79285;BME280;68734;50.452;11.636;2024-01-10T02:06:02;96672.31;;;-13.65;96.17
79285;BME280;68734;50.452;11.636;2024-01-10T02:08:37;96672.72;;;-13.57;95.98
79285;BME280;68734;50.452;11.636;2024-01-10T02:11:03;96665.97;;;-13.59;95.97
79285;BME280;68734;50.452;11.636;2024-01-10T02:13:30;96668.63;;;-13.61;95.72
79285;BME280;68734;50.452;11.636;2024-01-10T02:15:57;96673.69;;;-13.58;95.45
79285;BME280;68734;50.452;11.636;2024-01-10T02:18:22;96666.78;;;-13.59;94.71
79285;BME280;68734;50.452;11.636;2024-01-10T02:20:49;96671.16;;;-13.59;94.45
79285;BME280;68734;50.452;11.636;2024-01-10T02:23:14;96658.84;;;-13.56;92.96
79285;BME280;68734;50.452;11.636;2024-01-10T02:25:40;96652.88;;;-13.58;91.48
79285;BME280;68734;50.452;11.636;2024-01-10T02:28:06;96657.25;;;-13.58;91.23
79285;BME280;68734;50.452;11.636;2024-01-10T02:30:32;96652.28;;;-13.63;91.23
79285;BME280;68734;50.452;11.636;2024-01-10T02:32:58;96644.16;;;-13.57;91.55
79285;BME280;68734;50.452;11.636;2024-01-10T02:35:23;96646.19;;;-13.62;92.15
79285;BME280;68734;50.452;11.636;2024-01-10T02:37:51;96644.84;;;-13.69;92.11
79285;BME280;68734;50.452;11.636;2024-01-10T02:40:17;96646.88;;;-13.74;92.66
79285;BME280;68734;50.452;11.636;2024-01-10T02:42:43;96643.53;;;-13.76;92.81
79285;BME280;68734;50.452;11.636;2024-01-10T02:45:09;96645.50;;;-13.81;92.95
79285;BME280;68734;50.452;11.636;2024-01-10T02:47:35;96637.56;;;-13.78;92.00
79285;BME280;68734;50.452;11.636;2024-01-10T02:50:02;96641.81;;;-13.77;90.85
79285;BME280;68734;50.452;11.636;2024-01-10T02:52:28;96642.84;;;-13.80;90.77
79285;BME280;68734;50.452;11.636;2024-01-10T02:54:53;96642.16;;;-13.83;91.69
79285;BME280;68734;50.452;11.636;2024-01-10T02:57:19;96633.28;;;-13.79;91.86
79285;BME280;68734;50.452;11.636;2024-01-10T02:59:46;96635.88;;;-13.79;91.50
79285;BME280;68734;50.452;11.636;2024-01-10T03:02:12;96641.66;;;-13.74;91.57
79285;BME280;68734;50.452;11.636;2024-01-10T03:04:41;96629.59;;;-13.75;92.19
79285;BME280;68734;50.452;11.636;2024-01-10T03:07:09;96617.19;;;-13.70;92.18
79285;BME280;68734;50.452;11.636;2024-01-10T03:09:34;96617.34;;;-13.73;91.84
79285;BME280;68734;50.452;11.636;2024-01-10T03:12:00;96615.44;;;-13.86;91.76
79285;BME280;68734;50.452;11.636;2024-01-10T03:14:25;96619.06;;;-13.88;92.62
79285;BME280;68734;50.452;11.636;2024-01-10T03:16:50;96623.41;;;-13.89;92.60
79285;BME280;68734;50.452;11.636;2024-01-10T03:19:16;96624.41;;;-13.91;92.10
79285;BME280;68734;50.452;11.636;2024-01-10T03:21:41;96620.06;;;-13.91;92.30
79285;BME280;68734;50.452;11.636;2024-01-10T03:24:07;96614.19;;;-13.94;92.34
79285;BME280;68734;50.452;11.636;2024-01-10T03:26:33;96613.38;;;-13.95;91.82
79285;BME280;68734;50.452;11.636;2024-01-10T03:29:01;96609.25;;;-13.99;91.90
79285;BME280;68734;50.452;11.636;2024-01-10T03:31:28;96618.63;;;-13.96;91.38
79285;BME280;68734;50.452;11.636;2024-01-10T03:33:57;96610.91;;;-13.98;90.75
79285;BME280;68734;50.452;11.636;2024-01-10T03:36:23;96610.16;;;-14.00;91.15
79285;BME280;68734;50.452;11.636;2024-01-10T03:38:50;96607.66;;;-14.01;91.47
79285;BME280;68734;50.452;11.636;2024-01-10T03:41:17;96619.06;;;-14.04;91.82
79285;BME280;68734;50.452;11.636;2024-01-10T03:43:42;96614.88;;;-14.07;91.83
79285;BME280;68734;50.452;11.636;2024-01-10T03:46:09;96620.72;;;-14.03;91.91
79285;BME280;68734;50.452;11.636;2024-01-10T03:48:34;96616.53;;;-14.06;91.92
79285;BME280;68734;50.452;11.636;2024-01-10T03:51:03;96615.38;;;-14.00;91.80
79285;BME280;68734;50.452;11.636;2024-01-10T03:53:30;96619.38;;;-13.94;91.70
79285;BME280;68734;50.452;11.636;2024-01-10T03:55:55;96615.63;;;-13.89;91.97
79285;BME280;68734;50.452;11.636;2024-01-10T03:58:21;96614.19;;;-13.94;91.43
79285;BME280;68734;50.452;11.636;2024-01-10T04:00:48;96618.56;;;-13.95;91.24
79285;BME280;68734;50.452;11.636;2024-01-10T04:03:16;96611.69;;;-13.96;91.83
79285;BME280;68734;50.452;11.636;2024-01-10T04:05:42;96615.03;;;-13.94;91.64
79285;BME280;68734;50.452;11.636;2024-01-10T04:08:10;96609.00;;;-13.94;91.46
79285;BME280;68734;50.452;11.636;2024-01-10T04:10:36;96616.72;;;-13.93;91.43
79285;BME280;68734;50.452;11.636;2024-01-10T04:13:01;96616.03;;;-13.80;90.88
79285;BME280;68734;50.452;11.636;2024-01-10T04:15:27;96609.56;;;-13.73;90.23
79285;BME280;68734;50.452;11.636;2024-01-10T04:17:52;96608.47;;;-13.69;90.35
79285;BME280;68734;50.452;11.636;2024-01-10T04:20:18;96612.66;;;-13.67;90.87
79285;BME280;68734;50.452;11.636;2024-01-10T04:22:43;96601.94;;;-13.76;91.36
79285;BME280;68734;50.452;11.636;2024-01-10T04:25:11;96608.81;;;-13.75;91.89
79285;BME280;68734;50.452;11.636;2024-01-10T04:27:36;96606.47;;;-13.80;92.10
79285;BME280;68734;50.452;11.636;2024-01-10T04:30:02;96612.50;;;-13.79;91.76
79285;BME280;68734;50.452;11.636;2024-01-10T04:32:28;96609.16;;;-13.81;91.73
79285;BME280;68734;50.452;11.636;2024-01-10T04:34:53;96616.03;;;-13.80;92.08
79285;BME280;68734;50.452;11.636;2024-01-10T04:37:19;96611.06;;;-13.85;91.94
79285;BME280;68734;50.452;11.636;2024-01-10T04:39:44;96619.88;;;-13.88;92.08
79285;BME280;68734;50.452;11.636;2024-01-10T04:42:13;96614.53;;;-13.84;92.65
79285;BME280;68734;50.452;11.636;2024-01-10T04:44:38;96616.03;;;-13.80;92.63
79285;BME280;68734;50.452;11.636;2024-01-10T04:47:04;96615.00;;;-13.62;91.53
79285;BME280;68734;50.452;11.636;2024-01-10T04:49:29;96608.47;;;-13.69;91.98
79285;BME280;68734;50.452;11.636;2024-01-10T04:51:55;96604.28;;;-13.72;91.59
79285;BME280;68734;50.452;11.636;2024-01-10T04:54:21;96602.50;;;-13.71;91.32
79285;BME280;68734;50.452;11.636;2024-01-10T04:56:46;96613.75;;;-13.71;91.18
79285;BME280;68734;50.452;11.636;2024-01-10T04:59:12;96614.00;;;-13.75;91.48
79285;BME280;68734;50.452;11.636;2024-01-10T05:01:38;96607.31;;;-13.79;92.08
79285;BME280;68734;50.452;11.636;2024-01-10T05:04:03;96602.09;;;-13.79;92.05
79285;BME280;68734;50.452;11.636;2024-01-10T05:06:29;96599.78;;;-13.84;91.94
79285;BME280;68734;50.452;11.636;2024-01-10T05:08:54;96606.41;;;-13.78;91.55
79285;BME280;68734;50.452;11.636;2024-01-10T05:11:24;96601.00;;;-13.75;91.49
79285;BME280;68734;50.452;11.636;2024-01-10T05:13:53;96596.00;;;-13.78;91.58
79285;BME280;68734;50.452;11.636;2024-01-10T05:16:19;96600.59;;;-13.83;91.28
79285;BME280;68734;50.452;11.636;2024-01-10T05:18:44;96592.81;;;-13.83;91.03
79285;BME280;68734;50.452;11.636;2024-01-10T05:21:10;96595.41;;;-13.83;91.25
79285;BME280;68734;50.452;11.636;2024-01-10T05:23:35;96604.13;;;-13.84;90.79
79285;BME280;68734;50.452;11.636;2024-01-10T05:26:02;96605.47;;;-13.93;90.61
79285;BME280;68734;50.452;11.636;2024-01-10T05:28:27;96606.31;;;-13.93;90.64
79285;BME280;68734;50.452;11.636;2024-01-10T05:30:53;96602.97;;;-13.95;89.80
79285;BME280;68734;50.452;11.636;2024-01-10T05:33:19;96598.44;;;-13.91;89.97
79285;BME280;68734;50.452;11.636;2024-01-10T05:35:45;96599.63;;;-13.97;90.73
79285;BME280;68734;50.452;11.636;2024-01-10T05:38:13;96601.47;;;-13.99;91.12
79285;BME280;68734;50.452;11.636;2024-01-10T05:40:39;96592.59;;;-13.95;91.14
79285;BME280;68734;50.452;11.636;2024-01-10T05:43:05;96601.97;;;-13.92;90.93
79285;BME280;68734;50.452;11.636;2024-01-10T05:45:34;96604.47;;;-13.91;90.98
79285;BME280;68734;50.452;11.636;2024-01-10T05:48:02;96606.00;;;-13.87;90.91
79285;BME280;68734;50.452;11.636;2024-01-10T05:50:28;96591.16;;;-13.84;90.76
79285;BME280;68734;50.452;11.636;2024-01-10T05:52:53;96600.94;;;-13.90;90.33
79285;BME280;68734;50.452;11.636;2024-01-10T05:55:19;96597.59;;;-13.92;90.99
79285;BME280;68734;50.452;11.636;2024-01-10T05:57:44;96604.47;;;-13.91;91.09
79285;BME280;68734;50.452;11.636;2024-01-10T06:00:12;96596.91;;;-13.95;90.61
79285;BME280;68734;50.452;11.636;2024-01-10T06:02:40;96603.22;;;-13.99;90.39
79285;BME280;68734;50.452;11.636;2024-01-10T06:05:07;96609.41;;;-14.02;90.66
79285;BME280;68734;50.452;11.636;2024-01-10T06:07:34;96601.03;;;-14.07;91.02
79285;BME280;68734;50.452;11.636;2024-01-10T06:10:00;96617.53;;;-14.08;91.14
79285;BME280;68734;50.452;11.636;2024-01-10T06:12:26;96606.16;;;-14.06;90.42
79285;BME280;68734;50.452;11.636;2024-01-10T06:14:54;96599.78;;;-14.00;90.30
79285;BME280;68734;50.452;11.636;2024-01-10T06:17:20;96608.47;;;-14.01;90.60
79285;BME280;68734;50.452;11.636;2024-01-10T06:19:49;96613.38;;;-13.95;90.40
79285;BME280;68734;50.452;11.636;2024-01-10T06:22:15;96621.31;;;-13.98;90.73
79285;BME280;68734;50.452;11.636;2024-01-10T06:24:42;96606.66;;;-13.99;90.63
79285;BME280;68734;50.452;11.636;2024-01-10T06:27:07;96598.09;;;-14.01;90.80
79285;BME280;68734;50.452;11.636;2024-01-10T06:29:33;96620.63;;;-14.01;90.99
79285;BME280;68734;50.452;11.636;2024-01-10T06:32:01;96607.56;;;-14.00;91.34
79285;BME280;68734;50.452;11.636;2024-01-10T06:34:27;96612.75;;;-13.68;91.68
79285;BME280;68734;50.452;11.636;2024-01-10T06:36:53;96613.50;;;-13.66;91.63
79285;BME280;68734;50.452;11.636;2024-01-10T06:39:18;96603.09;;;-13.66;91.48
79285;BME280;68734;50.452;11.636;2024-01-10T06:41:47;96614.31;;;-13.66;91.11
79285;BME280;68734;50.452;11.636;2024-01-10T06:44:13;96608.47;;;-13.69;91.46
79285;BME280;68734;50.452;11.636;2024-01-10T06:46:39;96619.44;;;-13.64;91.28
79285;BME280;68734;50.452;11.636;2024-01-10T06:49:04;96609.97;;;-13.65;91.56
79285;BME280;68734;50.452;11.636;2024-01-10T06:51:30;96616.25;;;-13.69;90.95
79285;BME280;68734;50.452;11.636;2024-01-10T06:53:59;96622.72;;;-13.76;90.92
79285;BME280;68734;50.452;11.636;2024-01-10T06:56:32;96610.56;;;-13.76;91.00
79285;BME280;68734;50.452;11.636;2024-01-10T06:59:03;96606.41;;;-13.78;91.13
79285;BME280;68734;50.452;11.636;2024-01-10T07:01:29;96598.25;;;-13.72;91.55
79285;BME280;68734;50.452;11.636;2024-01-10T07:03:54;96590.88;;;-13.64;92.03
79285;BME280;68734;50.452;11.636;2024-01-10T07:06:20;96597.56;;;-13.60;91.25
79285;BME280;68734;50.452;11.636;2024-01-10T07:08:48;96601.75;;;-13.57;90.86
79285;BME280;68734;50.452;11.636;2024-01-10T07:11:14;96599.56;;;-13.65;91.17
79285;BME280;68734;50.452;11.636;2024-01-10T07:13:42;96601.59;;;-13.70;91.01
79285;BME280;68734;50.452;11.636;2024-01-10T07:16:08;96611.81;;;-13.67;91.04
79285;BME280;68734;50.452;11.636;2024-01-10T07:18:34;96598.06;;;-13.69;91.41
79285;BME280;68734;50.452;11.636;2024-01-10T07:21:00;96609.44;;;-13.56;91.98
79285;BME280;68734;50.452;11.636;2024-01-10T07:23:25;96606.50;;;-13.50;92.07
79285;BME280;68734;50.452;11.636;2024-01-10T07:25:51;96611.53;;;-13.47;91.84
79285;BME280;68734;50.452;11.636;2024-01-10T07:28:17;96628.81;;;-13.46;91.24
79285;BME280;68734;50.452;11.636;2024-01-10T07:30:43;96594.72;;;-13.41;91.32
79285;BME280;68734;50.452;11.636;2024-01-10T07:33:10;96601.81;;;-13.29;91.42
79285;BME280;68734;50.452;11.636;2024-01-10T07:35:35;96604.31;;;-13.27;91.18
79285;BME280;68734;50.452;11.636;2024-01-10T07:38:01;96602.47;;;-13.25;91.41
79285;BME280;68734;50.452;11.636;2024-01-10T07:40:26;96609.06;;;-13.19;91.28
79285;BME280;68734;50.452;11.636;2024-01-10T07:42:52;96609.16;;;-13.21;91.28
79285;BME280;68734;50.452;11.636;2024-01-10T07:45:17;96605.16;;;-13.27;91.40
79285;BME280;68734;50.452;11.636;2024-01-10T07:47:43;96616.78;;;-13.18;91.54
79285;BME280;68734;50.452;11.636;2024-01-10T07:50:12;96602.03;;;-13.17;91.69
79285;BME280;68734;50.452;11.636;2024-01-10T07:52:39;96607.63;;;-13.09;91.78
79285;BME280;68734;50.452;11.636;2024-01-10T07:55:06;96604.75;;;-13.05;91.60
79285;BME280;68734;50.452;11.636;2024-01-10T07:57:34;96600.84;;;-12.97;91.70
79285;BME280;68734;50.452;11.636;2024-01-10T08:00:03;96612.66;;;-12.92;91.61
79285;BME280;68734;50.452;11.636;2024-01-10T08:02:29;96595.28;;;-12.91;91.41
79285;BME280;68734;50.452;11.636;2024-01-10T08:05:00;96601.81;;;-12.84;91.68
79285;BME280;68734;50.452;11.636;2024-01-10T08:07:25;96603.97;;;-12.76;91.99
79285;BME280;68734;50.452;11.636;2024-01-10T08:09:51;96604.59;;;-12.73;91.86
79285;BME280;68734;50.452;11.636;2024-01-10T08:12:18;96612.81;;;-12.65;91.70
79285;BME280;68734;50.452;11.636;2024-01-10T08:14:44;96615.13;;;-12.60;91.88
79285;BME280;68734;50.452;11.636;2024-01-10T08:17:11;96613.34;;;-12.45;91.82
79285;BME280;68734;50.452;11.636;2024-01-10T08:19:39;96606.13;;;-12.40;91.71
79285;BME280;68734;50.452;11.636;2024-01-10T08:22:04;96606.84;;;-12.23;91.80
79285;BME280;68734;50.452;11.636;2024-01-10T08:24:30;96616.97;;;-12.19;92.48
79285;BME280;68734;50.452;11.636;2024-01-10T08:26:55;96616.69;;;-12.14;92.90
79285;BME280;68734;50.452;11.636;2024-01-10T08:29:21;96622.63;;;-11.98;92.95
79285;BME280;68734;50.452;11.636;2024-01-10T08:31:47;96613.47;;;-11.91;92.52
79285;BME280;68734;50.452;11.636;2024-01-10T08:34:13;96606.63;;;-11.79;92.50
79285;BME280;68734;50.452;11.636;2024-01-10T08:36:38;96594.44;;;-11.78;92.55
79285;BME280;68734;50.452;11.636;2024-01-10T08:39:04;96614.53;;;-11.66;92.49
79285;BME280;68734;50.452;11.636;2024-01-10T08:41:30;96616.25;;;-11.52;92.28
79285;BME280;68734;50.452;11.636;2024-01-10T08:43:56;96614.25;;;-11.49;92.23
79285;BME280;68734;50.452;11.636;2024-01-10T08:46:22;96616.28;;;-11.39;91.98
79285;BME280;68734;50.452;11.636;2024-01-10T08:48:50;96624.44;;;-11.31;91.77
79285;BME280;68734;50.452;11.636;2024-01-10T08:51:15;96615.28;;;-11.24;91.28
79285;BME280;68734;50.452;11.636;2024-01-10T08:53:42;96619.78;;;-11.13;90.77
79285;BME280;68734;50.452;11.636;2024-01-10T08:56:08;96617.72;;;-11.08;90.42
79285;BME280;68734;50.452;11.636;2024-01-10T08:58:33;96624.84;;;-10.97;91.02
79285;BME280;68734;50.452;11.636;2024-01-10T09:00:59;96633.22;;;-10.92;91.34
79285;BME280;68734;50.452;11.636;2024-01-10T09:03:27;96632.59;;;-10.83;91.19
79285;BME280;68734;50.452;11.636;2024-01-10T09:05:55;96633.88;;;-10.76;91.29
79285;BME280;68734;50.452;11.636;2024-01-10T09:08:20;96640.31;;;-10.69;91.34
79285;BME280;68734;50.452;11.636;2024-01-10T09:10:46;96639.81;;;-10.61;90.81
79285;BME280;68734;50.452;11.636;2024-01-10T09:13:11;96641.19;;;-10.55;90.75
79285;BME280;68734;50.452;11.636;2024-01-10T09:15:36;96637.00;;;-10.45;89.94
79285;BME280;68734;50.452;11.636;2024-01-10T09:18:02;96637.84;;;-10.32;89.28
79285;BME280;68734;50.452;11.636;2024-01-10T09:20:27;96636.34;;;-10.23;88.65
79285;BME280;68734;50.452;11.636;2024-01-10T09:22:55;96631.09;;;-10.10;88.28
79285;BME280;68734;50.452;11.636;2024-01-10T09:25:20;96632.44;;;-9.92;88.00
79285;BME280;68734;50.452;11.636;2024-01-10T09:27:46;96621.34;;;-9.58;88.73
79285;BME280;68734;50.452;11.636;2024-01-10T09:30:12;96621.50;;;-9.36;87.73
79285;BME280;68734;50.452;11.636;2024-01-10T09:32:38;96627.59;;;-9.24;87.20
79285;BME280;68734;50.452;11.636;2024-01-10T09:35:07;96620.50;;;-9.11;87.41
79285;BME280;68734;50.452;11.636;2024-01-10T09:37:35;96616.97;;;-9.10;87.11
79285;BME280;68734;50.452;11.636;2024-01-10T09:40:01;96626.78;;;-8.89;88.23
79285;BME280;68734;50.452;11.636;2024-01-10T09:42:29;96628.72;;;-8.80;89.04
79285;BME280;68734;50.452;11.636;2024-01-10T09:44:57;96626.06;;;-8.91;88.25
79285;BME280;68734;50.452;11.636;2024-01-10T09:47:23;96630.06;;;-8.98;88.54
79285;BME280;68734;50.452;11.636;2024-01-10T09:49:49;96609.13;;;-8.98;88.22
79285;BME280;68734;50.452;11.636;2024-01-10T09:52:26;96615.13;;;-8.85;87.17
79285;BME280;68734;50.452;11.636;2024-01-10T09:54:57;96611.34;;;-8.81;88.07
79285;BME280;68734;50.452;11.636;2024-01-10T09:57:25;96597.53;;;-8.83;88.26
79285;BME280;68734;50.452;11.636;2024-01-10T09:59:53;96610.41;;;-8.69;87.99
79285;BME280;68734;50.452;11.636;2024-01-10T10:02:22;96609.25;;;-8.53;88.14
79285;BME280;68734;50.452;11.636;2024-01-10T10:04:56;96607.56;;;-8.32;88.36
79285;BME280;68734;50.452;11.636;2024-01-10T10:07:26;96606.50;;;-8.07;87.44
79285;BME280;68734;50.452;11.636;2024-01-10T10:09:52;96616.53;;;-7.89;88.70
79285;BME280;68734;50.452;11.636;2024-01-10T10:12:18;96604.25;;;-7.89;86.84
79285;BME280;68734;50.452;11.636;2024-01-10T10:14:44;96607.44;;;-7.74;87.38
79285;BME280;68734;50.452;11.636;2024-01-10T10:17:17;96594.69;;;-7.67;86.24
79285;BME280;68734;50.452;11.636;2024-01-10T10:19:45;96589.88;;;-7.62;85.59
79285;BME280;68734;50.452;11.636;2024-01-10T10:22:11;96596.91;;;-7.51;84.57
79285;BME280;68734;50.452;11.636;2024-01-10T10:24:37;96599.75;;;-7.43;86.68
79285;BME280;68734;50.452;11.636;2024-01-10T10:27:11;96595.09;;;-7.39;86.02
79285;BME280;68734;50.452;11.636;2024-01-10T10:29:37;96589.78;;;-7.28;85.63
79285;BME280;68734;50.452;11.636;2024-01-10T10:32:03;96584.53;;;-7.17;86.06
79285;BME280;68734;50.452;11.636;2024-01-10T10:34:30;96590.91;;;-7.10;86.19
79285;BME280;68734;50.452;11.636;2024-01-10T10:36:56;96588.38;;;-7.00;85.38
79285;BME280;68734;50.452;11.636;2024-01-10T10:39:21;96587.50;;;-6.89;83.32
79285;BME280;68734;50.452;11.636;2024-01-10T10:41:47;96584.47;;;-6.85;83.85
79285;BME280;68734;50.452;11.636;2024-01-10T10:44:17;96584.38;;;-6.83;84.19
79285;BME280;68734;50.452;11.636;2024-01-10T10:46:56;96582.88;;;-6.76;85.46
79285;BME280;68734;50.452;11.636;2024-01-10T10:49:29;96592.63;;;-6.67;84.87
79285;BME280;68734;50.452;11.636;2024-01-10T10:52:00;96588.50;;;-6.59;83.98
79285;BME280;68734;50.452;11.636;2024-01-10T10:54:30;96594.41;;;-6.46;83.54
79285;BME280;68734;50.452;11.636;2024-01-10T10:56:58;96588.38;;;-6.37;83.61
79285;BME280;68734;50.452;11.636;2024-01-10T10:59:26;96587.28;;;-6.34;82.99
79285;BME280;68734;50.452;11.636;2024-01-10T11:01:52;96587.59;;;-6.28;82.38
79285;BME280;68734;50.452;11.636;2024-01-10T11:04:20;96584.88;;;-6.16;80.53
79285;BME280;68734;50.452;11.636;2024-01-10T11:06:46;96583.94;;;-6.06;78.50
79285;BME280;68734;50.452;11.636;2024-01-10T11:09:11;96585.94;;;-5.98;79.55
79285;BME280;68734;50.452;11.636;2024-01-10T11:20:14;96566.91;;;-5.61;77.54
79285;BME280;68734;50.452;11.636;2024-01-10T11:25:08;96563.19;;;-5.49;76.53
79285;BME280;68734;50.452;11.636;2024-01-10T11:27:34;96564.28;;;-5.42;75.89
79285;BME280;68734;50.452;11.636;2024-01-10T11:30:02;96555.84;;;-5.35;74.32
79285;BME280;68734;50.452;11.636;2024-01-10T11:32:34;96557.66;;;-5.26;74.67
79285;BME280;68734;50.452;11.636;2024-01-10T11:35:02;96555.28;;;-5.29;74.72
79285;BME280;68734;50.452;11.636;2024-01-10T11:37:42;96555.72;;;-5.24;75.71
79285;BME280;68734;50.452;11.636;2024-01-10T11:40:08;96550.72;;;-5.27;75.06
79285;BME280;68734;50.452;11.636;2024-01-10T11:42:45;96551.84;;;-5.20;75.84
79285;BME280;68734;50.452;11.636;2024-01-10T11:45:36;96554.34;;;-5.09;75.75
79285;BME280;68734;50.452;11.636;2024-01-10T11:48:02;96553.66;;;-5.01;74.89
79285;BME280;68734;50.452;11.636;2024-01-10T11:50:27;96542.13;;;-4.90;74.16
79285;BME280;68734;50.452;11.636;2024-01-10T11:52:56;96534.91;;;-4.78;72.71
79285;BME280;68734;50.452;11.636;2024-01-10T11:55:46;96546.41;;;-4.70;72.99
79285;BME280;68734;50.452;11.636;2024-01-10T11:58:11;96544.47;;;-4.68;73.21
79285;BME280;68734;50.452;11.636;2024-01-10T12:00:37;96547.78;;;-4.66;72.28
79285;BME280;68734;50.452;11.636;2024-01-10T12:03:03;96545.56;;;-4.61;71.16
79285;BME280;68734;50.452;11.636;2024-01-10T12:05:28;96544.56;;;-4.50;71.10
79285;BME280;68734;50.452;11.636;2024-01-10T12:07:54;96553.28;;;-4.49;71.99
79285;BME280;68734;50.452;11.636;2024-01-10T12:10:23;96539.41;;;-4.51;73.00
79285;BME280;68734;50.452;11.636;2024-01-10T12:12:51;96542.75;;;-4.49;71.23
79285;BME280;68734;50.452;11.636;2024-01-10T12:15:17;96539.81;;;-4.36;71.22
79285;BME280;68734;50.452;11.636;2024-01-10T12:17:42;96544.78;;;-4.33;68.73
79285;BME280;68734;50.452;11.636;2024-01-10T12:20:08;96530.78;;;-4.34;69.90
79285;BME280;68734;50.452;11.636;2024-01-10T12:22:34;96533.66;;;-4.27;70.10
79285;BME280;68734;50.452;11.636;2024-01-10T12:25:06;96530.59;;;-4.23;68.41
79285;BME280;68734;50.452;11.636;2024-01-10T12:27:32;96534.03;;;-4.12;67.60
79285;BME280;68734;50.452;11.636;2024-01-10T12:29:59;96522.22;;;-4.08;68.01
79285;BME280;68734;50.452;11.636;2024-01-10T12:32:27;96512.34;;;-4.06;68.10
79285;BME280;68734;50.452;11.636;2024-01-10T12:34:59;96517.72;;;-3.98;68.29
79285;BME280;68734;50.452;11.636;2024-01-10T12:37:24;96508.81;;;-3.97;67.57
79285;BME280;68734;50.452;11.636;2024-01-10T12:39:50;96513.41;;;-3.99;68.17
79285;BME280;68734;50.452;11.636;2024-01-10T12:42:15;96502.75;;;-4.07;69.05
79285;BME280;68734;50.452;11.636;2024-01-10T12:44:44;96506.75;;;-4.03;68.65
79285;BME280;68734;50.452;11.636;2024-01-10T12:47:20;96492.00;;;-3.96;67.68
79285;BME280;68734;50.452;11.636;2024-01-10T12:49:46;96494.06;;;-3.90;68.24
79285;BME280;68734;50.452;11.636;2024-01-10T12:52:14;96488.50;;;-3.87;68.06